Time;durP1;ratioP1;P1;durP2;ratioP2;P2;SDS_P1;SDS_P2;PMS_P1;PMS_P2;Temp;Humidity;BMP_temperature;BMP_pressure;BME280_temperature;BME280_humidity;BME280_pressure;Samples;Min_cycle;Max_cycle;Signal;HPM_P1;HPM_P2
2024/03/18 00:02:26;;;;;;;11.57;6.30;;;11.20;99.90;;;;;;5010478;28;20037;-72
2024/03/18 00:04:52;;;;;;;12.13;6.70;;;11.20;99.90;;;;;;5015521;28;20176;-73
2024/03/18 00:07:21;;;;;;;13.50;6.00;;;11.10;99.90;;;;;;5016917;28;20546;-73
2024/03/18 00:09:47;;;;;;;17.80;6.47;;;11.00;99.90;;;;;;5013476;28;20038;-72
2024/03/18 00:12:12;;;;;;;10.90;5.97;;;11.00;99.90;;;;;;4993369;28;20045;-72
2024/03/18 00:14:38;;;;;;;13.55;6.32;;;11.00;99.90;;;;;;5011472;28;20060;-72
2024/03/18 00:17:06;;;;;;;12.88;6.05;;;11.00;99.90;;;;;;5001853;28;20049;-72
2024/03/18 00:19:32;;;;;;;15.23;6.32;;;11.00;99.90;;;;;;4998359;28;20026;-73
2024/03/18 00:21:57;;;;;;;12.20;5.78;;;11.00;99.90;;;;;;4993921;28;20030;-72
2024/03/18 00:24:23;;;;;;;9.95;6.00;;;11.00;99.90;;;;;;4993386;28;20042;-72
2024/03/18 00:26:48;;;;;;;12.50;6.13;;;11.10;99.90;;;;;;5019220;28;20058;-72
2024/03/18 00:29:14;;;;;;;11.65;5.82;;;11.10;99.90;;;;;;4990791;28;20057;-71
2024/03/18 00:31:40;;;;;;;11.68;6.72;;;11.10;99.90;;;;;;5013575;28;20085;-73
2024/03/18 00:34:05;;;;;;;11.98;6.50;;;11.10;99.90;;;;;;4992580;28;20041;-73
2024/03/18 00:36:31;;;;;;;13.32;6.32;;;11.00;99.90;;;;;;5017695;28;20042;-73
2024/03/18 00:38:56;;;;;;;10.38;6.07;;;11.00;99.90;;;;;;5016671;28;20034;-71
2024/03/18 00:44:06;;;;;;;13.38;6.72;;;10.90;99.90;;;;;;5018171;28;20045;-72
2024/03/18 00:46:31;;;;;;;15.75;8.20;;;10.80;99.90;;;;;;4997142;28;20652;-72
2024/03/18 00:48:57;;;;;;;15.52;7.43;;;10.80;99.90;;;;;;5015932;28;20477;-72
2024/03/18 00:51:22;;;;;;;16.13;7.93;;;10.90;99.90;;;;;;4996901;28;20041;-73
2024/03/18 00:53:48;;;;;;;19.20;8.18;;;10.80;99.90;;;;;;5016983;28;20060;-69
2024/03/18 00:56:13;;;;;;;12.52;7.03;;;10.80;99.90;;;;;;4993881;28;20037;-71
2024/03/18 00:58:39;;;;;;;18.73;7.65;;;10.80;99.90;;;;;;5014839;28;20586;-71
2024/03/18 01:01:06;;;;;;;19.17;8.65;;;10.70;99.90;;;;;;5015635;28;20092;-72
2024/03/18 01:03:33;;;;;;;16.92;8.10;;;10.70;99.90;;;;;;5014161;28;20117;-71
2024/03/18 01:05:59;;;;;;;18.80;8.23;;;10.70;99.90;;;;;;5009822;28;20109;-73
2024/03/18 01:08:24;;;;;;;17.63;9.40;;;10.60;99.90;;;;;;4998067;28;20569;-72
2024/03/18 01:10:50;;;;;;;20.08;8.48;;;10.60;99.90;;;;;;5017056;28;20410;-72
2024/03/18 01:13:16;;;;;;;18.75;8.93;;;10.60;99.90;;;;;;4997177;28;20033;-75
2024/03/18 01:15:42;;;;;;;19.73;9.93;;;10.60;99.90;;;;;;5011075;28;20071;-73
2024/03/18 01:18:08;;;;;;;18.58;9.07;;;10.50;99.90;;;;;;5014569;28;20456;-72
2024/03/18 01:20:34;;;;;;;20.38;9.20;;;10.50;99.90;;;;;;5010873;28;20044;-71
2024/03/18 01:22:59;;;;;;;21.52;9.75;;;10.50;99.90;;;;;;4994980;28;20050;-71
2024/03/18 01:25:27;;;;;;;24.75;9.40;;;10.50;99.90;;;;;;5017104;28;20029;-73
2024/03/18 01:27:53;;;;;;;20.92;9.27;;;10.60;99.90;;;;;;4998817;28;20038;-72
2024/03/18 01:30:18;;;;;;;21.63;9.65;;;10.60;99.90;;;;;;5018243;28;20172;-72
2024/03/18 01:32:44;;;;;;;26.45;10.52;;;10.60;99.90;;;;;;5014044;28;20057;-71
2024/03/18 01:35:12;;;;;;;23.52;10.50;;;10.60;99.90;;;;;;4994447;28;20038;-72
2024/03/18 01:37:39;;;;;;;20.80;9.85;;;10.60;99.90;;;;;;5013736;28;20553;-72
2024/03/18 01:40:07;;;;;;;21.98;10.52;;;10.60;99.90;;;;;;5019207;28;20059;-71
2024/03/18 01:42:34;;;;;;;23.20;10.35;;;10.60;99.90;;;;;;5012524;28;20960;-72
2024/03/18 01:45:00;;;;;;;23.05;10.57;;;10.60;99.90;;;;;;5017137;28;20021;-72
2024/03/18 01:47:26;;;;;;;25.73;10.82;;;10.60;99.90;;;;;;5015174;28;20034;-72
2024/03/18 01:49:52;;;;;;;22.15;11.05;;;10.60;99.90;;;;;;5021003;28;20038;-72
2024/03/18 01:52:19;;;;;;;24.08;10.60;;;10.50;99.90;;;;;;4996681;28;20041;-73
2024/03/18 01:54:45;;;;;;;27.92;9.52;;;10.50;99.90;;;;;;5013556;28;20057;-72
2024/03/18 01:57:11;;;;;;;20.70;10.55;;;10.50;99.90;;;;;;5015700;28;20029;-72
2024/03/18 01:59:36;;;;;;;21.65;10.82;;;10.50;99.90;;;;;;5016218;28;20173;-72
2024/03/18 02:02:02;;;;;;;27.45;11.52;;;10.50;99.90;;;;;;5015438;28;20080;-72
2024/03/18 02:04:28;;;;;;;25.85;11.80;;;10.50;99.90;;;;;;5013098;28;20026;-73
2024/03/18 02:06:54;;;;;;;26.70;11.32;;;10.50;99.90;;;;;;5015983;28;20551;-72
2024/03/18 02:09:20;;;;;;;28.15;11.45;;;10.50;99.90;;;;;;4996865;28;20025;-70
2024/03/18 02:11:46;;;;;;;29.77;12.48;;;10.60;99.90;;;;;;5015707;28;20483;-72
2024/03/18 02:14:13;;;;;;;24.52;11.57;;;10.60;99.90;;;;;;5014840;28;20034;-72
2024/03/18 02:16:38;;;;;;;25.33;11.40;;;10.60;99.90;;;;;;4994388;28;20455;-72
2024/03/18 02:19:04;;;;;;;31.40;12.70;;;10.70;99.90;;;;;;5000296;28;20116;-72
2024/03/18 02:21:29;;;;;;;26.05;11.57;;;10.70;99.90;;;;;;5013945;28;20037;-72
2024/03/18 02:23:55;;;;;;;27.00;11.50;;;10.70;99.90;;;;;;5018345;28;20037;-72
2024/03/18 02:26:21;;;;;;;30.58;12.40;;;10.70;99.90;;;;;;4992491;28;20048;-71
2024/03/18 02:28:47;;;;;;;26.95;11.63;;;10.80;99.90;;;;;;5021631;28;20111;-71
2024/03/18 02:31:12;;;;;;;26.63;12.15;;;10.80;99.90;;;;;;5007781;28;20058;-72
2024/03/18 02:33:38;;;;;;;25.33;12.07;;;10.80;99.90;;;;;;5014718;28;20033;-71
2024/03/18 02:36:04;;;;;;;28.25;12.48;;;10.80;99.90;;;;;;4998268;28;20579;-71
2024/03/18 02:38:30;;;;;;;28.58;11.88;;;10.90;99.90;;;;;;4996422;28;20041;-74
2024/03/18 02:40:56;;;;;;;26.98;12.32;;;10.90;99.90;;;;;;5007316;28;20036;-73
2024/03/18 02:43:22;;;;;;;24.42;11.40;;;10.90;99.90;;;;;;5013691;28;20092;-71
2024/03/18 02:45:47;;;;;;;26.75;12.30;;;10.90;99.90;;;;;;5014683;28;21425;-72
2024/03/18 02:48:13;;;;;;;29.48;12.32;;;10.90;99.90;;;;;;5013288;28;20033;-72
2024/03/18 02:50:39;;;;;;;25.27;11.68;;;10.80;99.90;;;;;;5016376;28;20112;-71
2024/03/18 02:53:06;;;;;;;31.85;12.23;;;10.80;99.90;;;;;;5013382;28;20073;-72
2024/03/18 02:55:32;;;;;;;30.77;12.75;;;10.90;99.90;;;;;;4990391;28;20030;-72
2024/03/18 02:57:57;;;;;;;29.75;12.20;;;10.90;99.90;;;;;;5019170;28;20532;-71
2024/03/18 03:00:23;;;;;;;27.73;11.18;;;10.80;99.90;;;;;;5014745;28;20525;-72
2024/03/18 03:02:48;;;;;;;24.27;12.10;;;10.90;99.90;;;;;;5018975;28;20048;-73
2024/03/18 03:05:15;;;;;;;27.40;11.57;;;10.80;99.90;;;;;;5010379;28;20030;-73
2024/03/18 03:07:40;;;;;;;29.35;11.93;;;10.90;99.90;;;;;;5011960;28;20053;-72
2024/03/18 03:10:07;;;;;;;27.52;11.60;;;10.80;99.90;;;;;;5010529;28;20046;-72
2024/03/18 03:12:32;;;;;;;27.58;12.80;;;10.80;99.90;;;;;;4991097;28;20539;-72
2024/03/18 03:14:59;;;;;;;28.30;12.23;;;10.90;99.90;;;;;;5007088;28;20133;-73
2024/03/18 03:17:24;;;;;;;28.63;12.00;;;10.80;99.90;;;;;;5010452;28;20038;-71
2024/03/18 03:19:50;;;;;;;30.35;11.50;;;10.90;99.90;;;;;;5011143;28;20499;-73
2024/03/18 03:22:19;;;;;;;28.75;12.50;;;10.80;99.90;;;;;;4992701;28;20033;-72
2024/03/18 03:24:46;;;;;;;28.02;12.90;;;10.90;99.90;;;;;;4993347;28;20514;-72
2024/03/18 03:27:11;;;;;;;29.55;11.55;;;10.80;99.90;;;;;;5009289;28;20092;-72
2024/03/18 03:29:37;;;;;;;24.98;10.93;;;10.80;99.90;;;;;;5010310;28;20034;-72
2024/03/18 03:32:03;;;;;;;29.25;12.88;;;10.80;99.90;;;;;;5009575;28;20479;-72
2024/03/18 03:34:28;;;;;;;29.63;12.13;;;10.80;99.90;;;;;;5013820;28;20112;-73
2024/03/18 03:36:55;;;;;;;28.83;11.60;;;10.80;99.90;;;;;;4991587;28;20035;-72
2024/03/18 03:39:22;;;;;;;29.70;13.35;;;10.80;99.90;;;;;;4984281;28;20030;-74
2024/03/18 03:41:47;;;;;;;29.40;11.27;;;10.80;99.90;;;;;;5011588;28;20045;-71
2024/03/18 03:44:14;;;;;;;31.33;12.57;;;10.80;99.90;;;;;;4997849;28;20037;-71
2024/03/18 03:46:39;;;;;;;32.25;11.60;;;10.80;99.90;;;;;;5012590;28;20033;-72
2024/03/18 03:49:05;;;;;;;31.52;12.85;;;10.90;99.90;;;;;;5008867;28;20037;-72
2024/03/18 03:51:31;;;;;;;24.42;11.27;;;10.90;99.90;;;;;;5009359;28;20499;-72
2024/03/18 03:53:57;;;;;;;30.35;12.10;;;10.90;99.90;;;;;;5011811;28;20058;-73
2024/03/18 03:56:24;;;;;;;40.75;12.13;;;10.80;99.90;;;;;;4988136;28;20446;-72
2024/03/18 03:58:51;;;;;;;33.08;12.02;;;10.90;99.90;;;;;;4993315;28;20033;-72
2024/03/18 04:01:19;;;;;;;35.30;13.00;;;10.90;99.90;;;;;;5009064;28;20040;-72
2024/03/18 04:03:45;;;;;;;27.88;11.23;;;10.80;99.90;;;;;;5013600;28;20033;-72
2024/03/18 04:06:10;;;;;;;29.83;11.65;;;10.90;99.90;;;;;;5010890;28;20038;-72
2024/03/18 04:08:36;;;;;;;30.00;11.57;;;10.90;99.90;;;;;;5010963;28;20073;-72
2024/03/18 04:11:02;;;;;;;31.08;11.38;;;10.80;99.90;;;;;;4994582;28;20034;-71
2024/03/18 04:13:28;;;;;;;31.27;11.25;;;10.90;99.90;;;;;;5012681;28;20045;-71
2024/03/18 04:15:55;;;;;;;29.17;11.02;;;10.80;99.90;;;;;;5020428;28;20113;-71
2024/03/18 04:18:21;;;;;;;30.27;11.10;;;10.80;99.90;;;;;;4994723;28;20045;-72
2024/03/18 04:20:48;;;;;;;30.33;10.48;;;10.80;99.90;;;;;;5014654;28;20037;-72
2024/03/18 04:23:14;;;;;;;35.35;11.93;;;10.80;99.90;;;;;;4992026;28;20064;-71
2024/03/18 04:25:41;;;;;;;33.55;13.02;;;10.90;99.90;;;;;;5014613;28;20030;-72
2024/03/18 04:28:09;;;;;;;29.05;11.82;;;10.90;99.90;;;;;;4998470;28;20034;-71
2024/03/18 04:30:36;;;;;;;26.83;10.65;;;10.80;99.90;;;;;;5018226;28;20114;-72
2024/03/18 04:33:03;;;;;;;33.65;11.38;;;10.80;99.90;;;;;;5014027;28;20037;-73
2024/03/18 04:35:28;;;;;;;32.25;11.50;;;10.80;99.90;;;;;;4998431;28;20164;-72
2024/03/18 04:37:55;;;;;;;29.25;11.75;;;10.80;99.90;;;;;;5015272;28;20526;-71
2024/03/18 04:40:25;;;;;;;24.40;10.50;;;10.80;99.90;;;;;;5000019;28;20505;-72
2024/03/18 04:42:51;;;;;;;24.92;10.95;;;10.80;99.90;;;;;;4995979;28;20034;-71
2024/03/18 04:45:19;;;;;;;24.65;10.07;;;10.80;99.90;;;;;;5012214;28;20116;-72
2024/03/18 04:47:50;;;;;;;26.60;10.38;;;10.80;99.90;;;;;;5010937;28;20038;-71
2024/03/18 04:50:16;;;;;;;;;;;10.80;99.90;;;;;;5020132;28;20118;-72
2024/03/18 04:52:42;;;;;;;22.50;9.18;;;10.80;99.90;;;;;;4997528;28;20405;-73
2024/03/18 04:55:08;;;;;;;23.38;9.95;;;10.80;99.90;;;;;;5018766;28;20053;-72
2024/03/18 04:57:35;;;;;;;29.27;11.45;;;10.80;99.90;;;;;;4993552;28;20034;-72
2024/03/18 05:00:06;;;;;;;26.55;10.13;;;10.80;99.90;;;;;;5017624;28;20514;-72
2024/03/18 05:02:32;;;;;;;23.70;10.43;;;10.80;99.90;;;;;;4995742;28;20046;-70
2024/03/18 05:04:58;;;;;;;25.13;9.48;;;10.80;99.90;;;;;;4997533;28;20121;-72
2024/03/18 05:07:23;;;;;;;24.42;9.40;;;10.80;99.90;;;;;;4999981;28;20410;-71
2024/03/18 05:09:53;;;;;;;20.10;9.00;;;10.80;99.90;;;;;;4997860;28;20128;-72
2024/03/18 05:12:19;;;;;;;23.77;9.93;;;10.80;99.90;;;;;;5015421;28;20037;-73
2024/03/18 05:14:44;;;;;;;29.90;9.48;;;10.80;99.90;;;;;;5010716;28;20034;-71
2024/03/18 05:17:10;;;;;;;23.58;9.13;;;10.80;99.90;;;;;;5009056;28;20037;-72
2024/03/18 05:19:35;;;;;;;24.10;9.75;;;10.80;99.90;;;;;;5008520;28;20040;-72
2024/03/18 05:22:01;;;;;;;22.90;9.38;;;10.80;99.90;;;;;;5014127;28;20041;-72
2024/03/18 05:24:26;;;;;;;22.70;9.45;;;10.80;99.90;;;;;;5018280;28;20598;-73
2024/03/18 05:26:52;;;;;;;22.05;8.80;;;10.80;99.90;;;;;;5003374;28;20034;-73
2024/03/18 05:29:18;;;;;;;23.00;8.63;;;10.70;99.90;;;;;;5017148;28;20418;-73
2024/03/18 05:31:45;;;;;;;23.90;8.65;;;10.70;99.90;;;;;;5006437;28;20490;-72
2024/03/18 05:34:11;;;;;;;20.33;9.60;;;10.70;99.90;;;;;;5008760;28;20041;-71
2024/03/18 05:36:37;;;;;;;21.95;9.73;;;10.70;99.90;;;;;;5011042;28;20038;-73
2024/03/18 05:39:03;;;;;;;21.08;8.35;;;10.80;99.90;;;;;;5016346;28;20061;-71
2024/03/18 05:41:29;;;;;;;20.60;8.68;;;10.70;99.90;;;;;;5017495;28;20037;-73
2024/03/18 05:43:54;;;;;;;22.05;8.93;;;10.70;99.90;;;;;;5015060;28;20521;-72
2024/03/18 05:46:21;;;;;;;17.65;8.70;;;10.70;99.90;;;;;;5009004;28;20731;-72
2024/03/18 05:48:47;;;;;;;22.90;8.27;;;10.70;99.90;;;;;;5010705;28;20034;-72
2024/03/18 05:51:13;;;;;;;21.42;8.02;;;10.70;99.90;;;;;;5005810;28;20084;-72
2024/03/18 05:53:39;;;;;;;19.50;8.70;;;10.70;99.90;;;;;;5005812;28;20038;-73
2024/03/18 05:56:05;;;;;;;24.90;8.57;;;10.70;99.90;;;;;;4987344;28;20049;-74
2024/03/18 05:58:31;;;;;;;21.35;8.45;;;10.70;99.90;;;;;;5008259;28;20045;-73
2024/03/18 06:00:57;;;;;;;23.70;8.10;;;10.70;99.90;;;;;;5011585;28;20502;-74
2024/03/18 06:03:22;;;;;;;20.05;7.78;;;10.70;99.90;;;;;;5003428;28;20098;-73
2024/03/18 06:05:48;;;;;;;20.15;8.20;;;10.70;99.90;;;;;;5006748;28;20025;-73
2024/03/18 06:08:14;;;;;;;22.58;8.32;;;10.70;99.90;;;;;;5005425;28;20033;-73
2024/03/18 06:10:39;;;;;;;14.57;7.03;;;10.70;99.90;;;;;;5008992;28;20041;-73
2024/03/18 06:13:05;;;;;;;18.60;7.18;;;10.70;99.90;;;;;;5005377;28;20041;-73
2024/03/18 06:15:31;;;;;;;16.83;6.82;;;10.70;99.90;;;;;;5003739;28;20095;-72
2024/03/18 06:17:56;;;;;;;20.95;9.25;;;10.70;99.90;;;;;;5012100;28;20574;-72
2024/03/18 06:20:22;;;;;;;16.75;6.40;;;10.60;99.90;;;;;;5005049;28;20121;-72
2024/03/18 06:22:49;;;;;;;16.20;7.65;;;10.70;99.90;;;;;;4994261;28;20033;-71
2024/03/18 06:27:58;;;;;;;21.92;7.28;;;10.70;99.90;;;;;;5006926;28;20100;-74
2024/03/18 06:30:24;;;;;;;18.73;7.78;;;10.70;99.90;;;;;;5012248;28;20065;-71
2024/03/18 06:32:49;;;;;;;16.58;6.90;;;10.70;99.90;;;;;;4994011;28;20058;-73
2024/03/18 06:35:15;;;;;;;19.55;7.38;;;10.70;99.90;;;;;;4992940;28;20110;-72
2024/03/18 06:37:41;;;;;;;17.75;7.43;;;10.70;99.90;;;;;;5014933;28;20039;-72
2024/03/18 06:40:07;;;;;;;17.35;6.32;;;10.70;99.90;;;;;;4996193;28;20050;-73
2024/03/18 06:42:33;;;;;;;20.83;7.70;;;10.70;99.90;;;;;;4999757;28;20104;-72
2024/03/18 06:44:58;;;;;;;23.48;8.07;;;10.80;99.90;;;;;;5011303;28;20514;-72
2024/03/18 06:47:25;;;;;;;17.60;7.15;;;10.70;99.90;;;;;;5013866;28;20030;-72
2024/03/18 06:49:51;;;;;;;19.55;7.72;;;10.70;99.90;;;;;;5011561;28;20117;-73
2024/03/18 06:52:17;;;;;;;17.08;7.05;;;10.80;99.90;;;;;;4988437;28;20117;-72
2024/03/18 06:54:42;;;;;;;18.88;6.68;;;10.80;99.90;;;;;;4995984;28;20044;-73
2024/03/18 06:57:09;;;;;;;22.83;7.35;;;10.80;99.90;;;;;;5003651;28;20034;-71
2024/03/18 06:59:35;;;;;;;15.77;6.35;;;10.80;99.90;;;;;;5013287;28;20032;-72
2024/03/18 07:02:01;;;;;;;19.33;7.47;;;10.80;99.90;;;;;;4994904;28;20037;-71
2024/03/18 07:04:27;;;;;;;18.88;6.57;;;10.80;99.90;;;;;;5009944;28;20048;-72
2024/03/18 07:06:53;;;;;;;20.77;6.80;;;10.80;99.90;;;;;;5012461;28;20407;-73
2024/03/18 07:09:19;;;;;;;17.88;6.00;;;10.80;99.90;;;;;;5011923;28;20042;-72
2024/03/18 07:11:45;;;;;;;13.95;6.53;;;10.90;99.90;;;;;;5010267;28;20034;-73
2024/03/18 07:14:11;;;;;;;16.92;6.82;;;10.90;99.90;;;;;;5011101;28;20120;-73
2024/03/18 07:16:36;;;;;;;16.83;7.28;;;10.90;99.90;;;;;;5008892;28;20566;-73
2024/03/18 07:19:03;;;;;;;19.30;6.78;;;11.00;99.90;;;;;;5011283;28;20116;-72
2024/03/18 07:21:28;;;;;;;20.83;6.95;;;11.00;99.90;;;;;;4993359;28;20042;-77
2024/03/18 07:23:54;;;;;;;17.63;6.93;;;11.00;99.90;;;;;;5012799;28;20068;-73
2024/03/18 07:26:20;;;;;;;16.90;8.02;;;11.00;99.90;;;;;;5008759;28;20030;-71
2024/03/18 07:28:45;;;;;;;17.70;6.88;;;11.00;99.90;;;;;;4994202;28;20038;-73
2024/03/18 07:31:13;;;;;;;16.48;6.40;;;11.00;99.90;;;;;;5013282;28;20076;-72
2024/03/18 07:33:40;;;;;;;14.43;5.85;;;11.00;99.90;;;;;;5005070;28;20115;-70
2024/03/18 07:36:06;;;;;;;14.02;6.60;;;10.90;99.90;;;;;;5012378;28;20379;-73
2024/03/18 07:38:32;;;;;;;26.30;7.03;;;10.90;99.90;;;;;;4995830;28;20060;-72
2024/03/18 07:40:58;;;;;;;15.25;6.57;;;10.90;99.90;;;;;;5015483;28;20046;-72
2024/03/18 07:43:23;;;;;;;16.33;7.10;;;11.00;99.90;;;;;;5010584;28;20056;-73
2024/03/18 07:45:49;;;;;;;20.95;8.05;;;10.90;99.90;;;;;;5017508;28;20124;-73
2024/03/18 07:48:14;;;;;;;21.58;6.78;;;11.00;99.90;;;;;;5015339;28;20036;-72
2024/03/18 07:50:40;;;;;;;24.60;7.55;;;11.00;99.90;;;;;;4997694;28;20033;-72
2024/03/18 07:53:05;;;;;;;20.67;7.18;;;11.00;99.90;;;;;;4998821;28;20387;-73
2024/03/18 07:55:31;;;;;;;23.42;7.30;;;11.00;99.90;;;;;;5014164;28;20046;-73
2024/03/18 07:57:57;;;;;;;24.08;8.40;;;11.00;99.90;;;;;;4999441;28;20103;-71
2024/03/18 08:00:23;;;;;;;25.90;8.30;;;11.00;99.90;;;;;;5016668;28;20030;-71
2024/03/18 08:02:49;;;;;;;26.75;7.90;;;11.00;99.90;;;;;;5018286;28;20034;-72
2024/03/18 08:05:14;;;;;;;23.02;8.73;;;11.00;99.90;;;;;;5015064;28;20046;-73
2024/03/18 08:07:40;;;;;;;25.33;8.40;;;11.10;99.90;;;;;;5009934;28;20513;-72
2024/03/18 08:10:06;;;;;;;23.52;8.82;;;11.10;99.90;;;;;;5017986;28;20025;-73
2024/03/18 08:12:32;;;;;;;28.83;9.30;;;11.10;99.90;;;;;;5013621;28;20034;-73
2024/03/18 08:14:57;;;;;;;31.77;9.18;;;11.10;99.90;;;;;;5001120;28;20514;-70
2024/03/18 08:17:23;;;;;;;30.98;9.35;;;11.10;99.90;;;;;;5015946;28;20034;-72
2024/03/18 08:19:48;;;;;;;26.98;8.02;;;11.20;99.90;;;;;;5000458;28;20403;-73
2024/03/18 08:22:16;;;;;;;29.23;8.40;;;11.30;99.90;;;;;;4996576;28;20033;-72
2024/03/18 08:24:42;;;;;;;29.90;9.93;;;11.40;99.90;;;;;;5017915;28;20517;-73
2024/03/18 08:27:09;;;;;;;35.13;10.32;;;11.50;99.90;;;;;;5013832;28;20041;-73
2024/03/18 08:29:35;;;;;;;25.65;9.25;;;11.50;99.90;;;;;;5011172;28;20107;-73
2024/03/18 08:32:00;;;;;;;30.83;8.93;;;11.60;99.90;;;;;;5015582;28;20500;-72
2024/03/18 08:34:26;;;;;;;36.60;10.93;;;11.60;99.90;;;;;;5014664;28;20052;-73
2024/03/18 08:36:51;;;;;;;28.00;9.27;;;11.70;99.90;;;;;;5015734;28;20502;-73
2024/03/18 08:39:18;;;;;;;32.85;9.40;;;11.70;99.90;;;;;;5018056;28;20056;-73
2024/03/18 08:41:45;;;;;;;24.60;9.50;;;11.80;99.90;;;;;;4999746;28;20037;-72
2024/03/18 08:44:10;;;;;;;24.90;8.15;;;11.90;99.90;;;;;;5015997;28;20092;-72
2024/03/18 08:46:36;;;;;;;26.75;9.52;;;12.00;99.90;;;;;;5001372;28;20437;-74
2024/03/18 08:49:01;;;;;;;27.38;10.35;;;12.10;99.90;;;;;;5015903;28;20427;-73
2024/03/18 08:51:27;;;;;;;29.23;9.18;;;12.30;99.90;;;;;;5013530;28;20116;-73
2024/03/18 08:53:52;;;;;;;29.88;10.00;;;12.40;99.90;;;;;;5013802;28;20041;-72
2024/03/18 08:56:18;;;;;;;34.75;11.52;;;12.60;99.90;;;;;;4991193;28;20041;-74
2024/03/18 08:58:43;;;;;;;25.45;8.25;;;12.80;99.90;;;;;;4997757;28;20038;-73
2024/03/18 09:01:09;;;;;;;26.00;8.52;;;12.80;99.90;;;;;;5016252;28;20038;-72
2024/03/18 09:03:35;;;;;;;32.03;9.45;;;12.90;99.90;;;;;;5005777;28;20045;-74
2024/03/18 09:06:01;;;;;;;24.27;7.95;;;13.00;99.90;;;;;;5016276;28;20120;-75
2024/03/18 09:08:26;;;;;;;25.75;7.28;;;12.90;99.90;;;;;;5017632;28;20129;-73
2024/03/18 09:10:52;;;;;;;19.70;7.00;;;13.00;99.90;;;;;;5017385;28;20117;-71
2024/03/18 09:13:18;;;;;;;18.83;5.93;;;13.10;99.90;;;;;;5015152;28;20080;-73
2024/03/18 09:15:43;;;;;;;23.90;5.85;;;13.10;99.90;;;;;;5020554;28;20072;-74
2024/03/18 09:18:10;;;;;;;12.23;4.80;;;13.10;99.90;;;;;;4998296;28;20034;-74
2024/03/18 09:20:38;;;;;;;19.10;5.88;;;13.10;99.90;;;;;;5015129;28;20037;-73
2024/03/18 09:23:04;;;;;;;18.77;5.32;;;13.20;99.90;;;;;;5011375;28;20528;-74
2024/03/18 09:25:30;;;;;;;15.63;4.28;;;13.20;99.90;;;;;;5018434;28;20065;-75
2024/03/18 09:27:55;;;;;;;19.90;5.95;;;13.20;99.90;;;;;;5019461;28;20091;-74
2024/03/18 09:30:23;;;;;;;20.10;5.65;;;13.20;99.90;;;;;;5018115;28;20111;-72
2024/03/18 09:32:49;;;;;;;13.60;4.75;;;13.20;99.90;;;;;;5017845;28;20041;-73
2024/03/18 09:35:15;;;;;;;17.13;5.15;;;13.20;99.90;;;;;;5000923;28;20446;-74
2024/03/18 09:37:41;;;;;;;15.68;4.55;;;13.20;99.90;;;;;;5019082;28;20091;-73
2024/03/18 09:40:07;;;;;;;15.70;4.53;;;13.30;99.90;;;;;;5004569;28;20394;-73
2024/03/18 09:42:35;;;;;;;12.77;4.47;;;13.50;99.90;;;;;;4996984;28;20034;-72
2024/03/18 09:45:01;;;;;;;13.30;3.70;;;13.60;99.90;;;;;;4998107;28;20048;-73
2024/03/18 09:47:27;;;;;;;15.18;4.25;;;13.60;99.90;;;;;;5014613;28;20503;-72
2024/03/18 09:49:53;;;;;;;11.77;3.30;;;13.70;99.90;;;;;;5016427;28;20042;-73
2024/03/18 09:52:20;;;;;;;17.25;3.22;;;13.80;99.90;;;;;;5016996;28;20030;-72
2024/03/18 09:54:47;;;;;;;13.50;2.83;;;14.00;99.90;;;;;;5003038;28;20092;-74
2024/03/18 09:57:18;;;;;;;11.20;3.20;;;14.20;99.90;;;;;;5009992;28;20029;-72
2024/03/18 09:59:44;;;;;;;13.30;2.63;;;14.40;99.90;;;;;;5012250;28;20046;-75
2024/03/18 10:02:19;;;;;;;7.20;2.42;;;14.60;99.90;;;;;;5014401;28;20478;-73
2024/03/18 10:04:47;;;;;;;6.65;2.13;;;14.60;99.90;;;;;;4994745;28;20046;-72
2024/03/18 10:07:15;;;;;;;10.77;2.42;;;14.50;99.90;;;;;;5009716;28;20038;-74
2024/03/18 10:09:44;;;;;;;8.38;1.58;;;14.50;99.90;;;;;;5012460;28;20042;-71
2024/03/18 10:12:12;;;;;;;7.45;1.75;;;14.40;99.90;;;;;;5013589;28;20511;-72
2024/03/18 10:14:38;;;;;;;3.67;0.88;;;14.40;99.90;;;;;;5010538;28;20104;-74
2024/03/18 10:17:04;;;;;;;12.68;1.30;;;14.40;99.90;;;;;;5015495;28;20030;-74
2024/03/18 10:19:30;;;;;;;5.53;1.00;;;14.40;99.90;;;;;;4993012;28;20128;-71
2024/03/18 10:21:57;;;;;;;8.02;1.15;;;14.30;99.90;;;;;;5015021;28;20091;-74
2024/03/18 10:24:23;;;;;;;7.60;1.45;;;14.20;99.90;;;;;;5012183;28;20045;-73
2024/03/18 10:26:50;;;;;;;6.43;1.08;;;14.20;99.90;;;;;;4993559;28;20048;-72
2024/03/18 10:29:16;;;;;;;6.82;1.10;;;14.30;99.90;;;;;;5012403;28;20033;-73
2024/03/18 10:31:42;;;;;;;4.85;1.08;;;14.40;99.90;;;;;;5010932;28;20112;-74
2024/03/18 10:34:19;;;;;;;6.80;1.20;;;14.40;99.90;;;;;;5013001;28;20120;-72
2024/03/18 10:36:45;;;;;;;6.72;0.82;;;14.50;99.90;;;;;;4995645;28;20460;-72
2024/03/18 10:39:16;;;;;;;5.03;1.77;;;14.50;99.90;;;;;;4993449;28;20065;-73
2024/03/18 10:41:43;;;;;;;;;;;14.60;99.90;;;;;;4992415;28;20042;-74
2024/03/18 10:44:20;;;;;;;5.18;1.23;;;14.60;99.90;;;;;;5014636;28;19921;-78
2024/03/18 10:46:47;;;;;;;4.93;0.70;;;14.60;99.90;;;;;;5011050;28;20045;-74
2024/03/18 10:49:20;;;;;;;6.35;1.27;;;14.70;99.90;;;;;;5013633;28;20029;-74
2024/03/18 10:51:46;;;;;;;3.90;0.57;;;14.70;99.90;;;;;;5013161;28;20128;-73
2024/03/18 10:54:17;;;;;;;6.07;1.05;;;14.80;99.90;;;;;;5007114;28;20145;-72
2024/03/18 10:56:47;;;;;;;4.15;0.95;;;14.80;99.90;;;;;;5009300;28;20069;-72
2024/03/18 10:59:15;;;;;;;2.90;0.82;;;14.90;99.90;;;;;;4994679;28;20084;-74
2024/03/18 11:01:41;;;;;;;7.13;1.20;;;14.90;99.90;;;;;;4991123;28;20084;-73
2024/03/18 11:04:25;;;;;;;6.70;1.70;;;15.00;99.90;;;;;;5011935;28;20547;-72
2024/03/18 11:06:53;;;;;;;4.82;0.63;;;15.20;99.90;;;;;;5011182;28;20037;-73
2024/03/18 11:09:19;;;;;;;8.20;1.95;;;15.20;99.90;;;;;;5009978;28;20040;-74
2024/03/18 11:11:46;;;;;;;5.05;0.80;;;15.20;99.90;;;;;;5009798;28;20038;-72
2024/03/18 11:14:23;;;;;;;2.30;0.90;;;15.30;99.90;;;;;;4992977;28;20030;-74
2024/03/18 11:16:50;;;;;;;5.95;0.77;;;15.30;99.90;;;;;;5017772;28;20037;-72
2024/03/18 11:19:16;;;;;;;2.10;0.85;;;15.40;99.90;;;;;;5015542;28;20050;-71
2024/03/18 11:21:42;;;;;;;4.93;0.90;;;15.30;99.90;;;;;;5016764;28;20046;-73
2024/03/18 11:24:08;;;;;;;7.95;0.90;;;15.20;99.90;;;;;;4992660;28;20133;-72
2024/03/18 11:26:40;;;;;;;2.80;0.50;;;15.20;99.90;;;;;;5011643;28;20116;-74
2024/03/18 11:29:10;;;;;;;12.25;0.82;;;15.30;99.90;;;;;;4998515;28;20042;-74
2024/03/18 11:31:37;;;;;;;3.83;0.85;;;15.40;99.90;;;;;;4997955;28;20060;-75
2024/03/18 11:34:07;;;;;;;4.63;0.80;;;15.40;99.90;;;;;;4999523;28;20116;-71
2024/03/18 11:36:38;;;;;;;7.00;0.57;;;15.30;99.90;;;;;;4996869;28;20066;-73
2024/03/18 11:39:04;;;;;;;3.33;0.40;;;15.30;99.90;;;;;;4997131;28;20045;-73
2024/03/18 11:41:29;;;;;;;2.85;0.47;;;15.30;99.90;;;;;;4996092;28;20109;-72
2024/03/18 11:43:55;;;;;;;4.60;0.50;;;15.40;99.90;;;;;;5015302;28;20029;-73
2024/03/18 11:46:20;;;;;;;6.03;0.45;;;15.30;99.90;;;;;;4999261;28;20438;-72
2024/03/18 11:48:46;;;;;;;1.48;0.55;;;15.20;99.90;;;;;;5012972;28;21885;-72
2024/03/18 11:51:11;;;;;;;3.22;0.40;;;15.10;99.90;;;;;;5000453;28;20029;-73
2024/03/18 11:53:37;;;;;;;5.93;0.77;;;15.20;99.90;;;;;;5014433;28;20037;-73
2024/03/18 11:56:04;;;;;;;4.93;0.65;;;15.20;99.90;;;;;;5000883;28;20037;-74
2024/03/18 11:58:32;;;;;;;6.47;0.73;;;15.20;99.90;;;;;;5015255;28;20049;-75
2024/03/18 12:00:57;;;;;;;5.57;0.93;;;15.10;99.90;;;;;;5006774;28;20122;-70
2024/03/18 12:03:23;;;;;;;4.50;0.60;;;15.20;99.90;;;;;;4986326;28;20415;-72
2024/03/18 12:05:49;;;;;;;4.72;0.80;;;15.30;99.90;;;;;;5007783;28;20026;-73
2024/03/18 12:08:19;;;;;;;4.22;1.55;;;15.40;99.90;;;;;;4990965;28;20042;-72
2024/03/18 12:10:47;;;;;;;5.68;0.57;;;15.60;99.90;;;;;;5008888;28;20026;-73
2024/03/18 12:13:13;;;;;;;3.40;0.70;;;15.60;99.90;;;;;;5007459;28;20037;-72
2024/03/18 12:15:39;;;;;;;6.78;0.55;;;15.60;99.90;;;;;;5005688;28;20041;-70
2024/03/18 12:18:08;;;;;;;5.43;0.47;;;15.60;99.90;;;;;;4990260;28;20125;-73
2024/03/18 12:20:33;;;;;;;5.00;0.73;;;15.50;99.90;;;;;;5007311;28;20598;-73
2024/03/18 12:23:02;;;;;;;3.00;0.70;;;15.50;99.90;;;;;;5008214;28;20124;-72
2024/03/18 12:28:32;;;;;;;4.03;0.73;;;15.30;99.90;;;;;;5008325;28;20064;-72
2024/03/18 12:30:59;;;;;;;5.85;0.90;;;15.20;99.90;;;;;;4988235;28;20037;-72
2024/03/18 12:33:28;;;;;;;5.93;0.60;;;15.10;99.90;;;;;;5007434;28;20037;-74
2024/03/18 12:35:55;;;;;;;5.45;0.57;;;15.00;99.90;;;;;;5009978;28;20555;-73
2024/03/18 12:38:20;;;;;;;11.40;1.25;;;14.90;99.90;;;;;;5004731;28;20100;-72
2024/03/18 12:40:46;;;;;;;4.22;0.98;;;14.80;99.90;;;;;;5005852;28;20616;-73